sensor_id;sensor_type;location;lat;lon;timestamp;pressure;altitude;pressure_sealevel;temperature;humidity
45621;BME280;31345;51.522;10.702;2022-07-29T00:01:41;99306.34;;;15.97;82.30
45621;BME280;31345;51.522;10.702;2022-07-29T00:04:09;99316.81;;;15.87;83.61
45621;BME280;31345;51.522;10.702;2022-07-29T00:06:37;99314.13;;;15.99;84.89
45621;BME280;31345;51.522;10.702;2022-07-29T00:09:05;99315.63;;;16.23;81.17
45621;BME280;31345;51.522;10.702;2022-07-29T00:11:32;99321.66;;;16.35;84.76
45621;BME280;31345;51.522;10.702;2022-07-29T00:14:00;99311.00;;;16.15;82.63
45621;BME280;31345;51.522;10.702;2022-07-29T00:16:29;99300.97;;;16.08;83.89
45621;BME280;31345;51.522;10.702;2022-07-29T00:18:56;99292.34;;;16.06;83.25
45621;BME280;31345;51.522;10.702;2022-07-29T00:21:24;99298.78;;;16.14;84.46
45621;BME280;31345;51.522;10.702;2022-07-29T00:23:51;99293.66;;;15.91;86.60
45621;BME280;31345;51.522;10.702;2022-07-29T00:26:19;99291.75;;;15.93;85.22
45621;BME280;31345;51.522;10.702;2022-07-29T00:28:46;99279.53;;;15.92;85.88
45621;BME280;31345;51.522;10.702;2022-07-29T00:31:14;99280.09;;;15.95;84.37
45621;BME280;31345;51.522;10.702;2022-07-29T00:33:43;99263.63;;;16.44;77.65
45621;BME280;31345;51.522;10.702;2022-07-29T00:36:11;99263.94;;;16.51;77.73
45621;BME280;31345;51.522;10.702;2022-07-29T00:38:37;99270.63;;;16.65;77.46
45621;BME280;31345;51.522;10.702;2022-07-29T00:41:05;99266.63;;;16.81;76.74
45621;BME280;31345;51.522;10.702;2022-07-29T00:43:32;99270.63;;;16.65;77.77
45621;BME280;31345;51.522;10.702;2022-07-29T00:46:00;99270.75;;;16.44;79.36
45621;BME280;31345;51.522;10.702;2022-07-29T00:48:27;99268.34;;;16.31;79.98
45621;BME280;31345;51.522;10.702;2022-07-29T00:50:57;99264.34;;;16.15;81.80
45621;BME280;31345;51.522;10.702;2022-07-29T00:53:26;99270.00;;;16.32;78.74
45621;BME280;31345;51.522;10.702;2022-07-29T00:55:54;99259.88;;;16.37;79.87
45621;BME280;31345;51.522;10.702;2022-07-29T00:58:22;99261.59;;;16.17;80.67
45621;BME280;31345;51.522;10.702;2022-07-29T01:00:50;99262.91;;;16.01;82.42
45621;BME280;31345;51.522;10.702;2022-07-29T01:03:17;99258.22;;;15.84;83.69
45621;BME280;31345;51.522;10.702;2022-07-29T01:05:45;99249.47;;;15.73;82.30
45621;BME280;31345;51.522;10.702;2022-07-29T01:08:15;99243.88;;;15.66;82.33
45621;BME280;31345;51.522;10.702;2022-07-29T01:10:43;99243.69;;;15.58;83.22
45621;BME280;31345;51.522;10.702;2022-07-29T01:13:13;99245.22;;;15.61;83.64
45621;BME280;31345;51.522;10.702;2022-07-29T01:15:44;99246.53;;;15.45;84.14
45621;BME280;31345;51.522;10.702;2022-07-29T01:18:16;99244.19;;;15.52;84.55
45621;BME280;31345;51.522;10.702;2022-07-29T01:21:01;99242.41;;;15.52;82.10
45621;BME280;31345;51.522;10.702;2022-07-29T01:24:02;99234.06;;;15.26;82.58
45621;BME280;31345;51.522;10.702;2022-07-29T01:26:45;99235.94;;;15.02;83.06
45621;BME280;31345;51.522;10.702;2022-07-29T01:29:21;99232.09;;;14.95;83.76
45621;BME280;31345;51.522;10.702;2022-07-29T01:31:54;99226.94;;;15.05;83.98
45621;BME280;31345;51.522;10.702;2022-07-29T01:34:27;99227.81;;;15.06;83.17
45621;BME280;31345;51.522;10.702;2022-07-29T01:37:03;99216.75;;;14.79;83.86
45621;BME280;31345;51.522;10.702;2022-07-29T01:39:34;99216.56;;;14.59;85.06
45621;BME280;31345;51.522;10.702;2022-07-29T01:42:07;99217.66;;;14.57;85.59
45621;BME280;31345;51.522;10.702;2022-07-29T01:44:41;99218.13;;;14.50;86.91
45621;BME280;31345;51.522;10.702;2022-07-29T01:47:19;99213.88;;;14.38;88.38
45621;BME280;31345;51.522;10.702;2022-07-29T01:49:52;99206.50;;;14.32;89.37
45621;BME280;31345;51.522;10.702;2022-07-29T01:52:27;99211.09;;;14.51;89.06
45621;BME280;31345;51.522;10.702;2022-07-29T01:55:00;99209.09;;;14.76;87.90
45621;BME280;31345;51.522;10.702;2022-07-29T01:57:31;99211.69;;;14.55;88.87
45621;BME280;31345;51.522;10.702;2022-07-29T02:00:04;99210.34;;;14.60;87.76
45621;BME280;31345;51.522;10.702;2022-07-29T02:02:39;99206.09;;;14.36;88.39
45621;BME280;31345;51.522;10.702;2022-07-29T02:05:10;99202.66;;;14.36;89.19
45621;BME280;31345;51.522;10.702;2022-07-29T02:07:40;99204.66;;;14.44;89.13
45621;BME280;31345;51.522;10.702;2022-07-29T02:10:10;99203.19;;;14.62;87.95
45621;BME280;31345;51.522;10.702;2022-07-29T02:12:39;99199.78;;;14.72;88.08
45621;BME280;31345;51.522;10.702;2022-07-29T02:15:11;99203.97;;;14.74;88.62
45621;BME280;31345;51.522;10.702;2022-07-29T02:17:42;99194.47;;;14.83;89.55
45621;BME280;31345;51.522;10.702;2022-07-29T02:20:11;99201.41;;;14.84;88.96
45621;BME280;31345;51.522;10.702;2022-07-29T02:22:40;99199.88;;;14.82;88.98
45621;BME280;31345;51.522;10.702;2022-07-29T02:25:10;99198.16;;;14.59;90.88
45621;BME280;31345;51.522;10.702;2022-07-29T02:27:39;99191.00;;;14.83;87.76
45621;BME280;31345;51.522;10.702;2022-07-29T02:30:11;99191.59;;;14.86;87.58
45621;BME280;31345;51.522;10.702;2022-07-29T02:32:41;99186.06;;;14.68;89.56
45621;BME280;31345;51.522;10.702;2022-07-29T02:35:10;99185.03;;;14.81;88.50
45621;BME280;31345;51.522;10.702;2022-07-29T02:37:42;99188.00;;;14.87;88.29
45621;BME280;31345;51.522;10.702;2022-07-29T02:40:11;99190.56;;;14.77;90.89
45621;BME280;31345;51.522;10.702;2022-07-29T02:42:42;99187.69;;;14.81;91.22
45621;BME280;31345;51.522;10.702;2022-07-29T02:45:12;99189.53;;;14.57;95.56
45621;BME280;31345;51.522;10.702;2022-07-29T02:47:42;99190.75;;;14.53;94.09
45621;BME280;31345;51.522;10.702;2022-07-29T02:50:14;99186.66;;;14.60;91.15
45621;BME280;31345;51.522;10.702;2022-07-29T02:52:44;99189.41;;;14.59;94.33
45621;BME280;31345;51.522;10.702;2022-07-29T02:55:15;99188.78;;;14.78;90.99
45621;BME280;31345;51.522;10.702;2022-07-29T02:57:48;99182.75;;;14.87;91.21
45621;BME280;31345;51.522;10.702;2022-07-29T03:00:18;99183.72;;;15.08;89.78
45621;BME280;31345;51.522;10.702;2022-07-29T03:02:49;99178.53;;;14.96;89.50
45621;BME280;31345;51.522;10.702;2022-07-29T03:05:19;99182.75;;;14.87;90.97
45621;BME280;31345;51.522;10.702;2022-07-29T03:07:51;99179.59;;;14.94;90.35
45621;BME280;31345;51.522;10.702;2022-07-29T03:10:21;99177.03;;;14.82;92.49
45621;BME280;31345;51.522;10.702;2022-07-29T03:12:49;99182.78;;;14.76;93.89
45621;BME280;31345;51.522;10.702;2022-07-29T03:15:18;99182.09;;;14.74;94.54
45621;BME280;31345;51.522;10.702;2022-07-29T03:17:46;99181.81;;;14.77;93.27
45621;BME280;31345;51.522;10.702;2022-07-29T03:20:16;99180.78;;;14.68;94.68
45621;BME280;31345;51.522;10.702;2022-07-29T03:22:47;99175.00;;;14.74;94.24
45621;BME280;31345;51.522;10.702;2022-07-29T03:25:16;99168.41;;;14.80;93.48
45621;BME280;31345;51.522;10.702;2022-07-29T03:27:44;99169.63;;;14.76;95.56
45621;BME280;31345;51.522;10.702;2022-07-29T03:30:13;99165.09;;;14.99;92.16
45621;BME280;31345;51.522;10.702;2022-07-29T03:32:42;99163.88;;;15.03;90.63
45621;BME280;31345;51.522;10.702;2022-07-29T03:35:09;99167.00;;;15.09;89.92
45621;BME280;31345;51.522;10.702;2022-07-29T03:37:37;99164.72;;;15.25;87.50
45621;BME280;31345;51.522;10.702;2022-07-29T03:40:07;99167.78;;;15.52;85.95
45621;BME280;31345;51.522;10.702;2022-07-29T03:42:38;99166.13;;;15.51;87.02
45621;BME280;31345;51.522;10.702;2022-07-29T03:45:09;99179.03;;;15.54;87.66
45621;BME280;31345;51.522;10.702;2022-07-29T03:47:42;99175.97;;;15.27;89.94
45621;BME280;31345;51.522;10.702;2022-07-29T03:50:14;99172.44;;;15.38;88.92
45621;BME280;31345;51.522;10.702;2022-07-29T03:52:42;99163.94;;;15.35;87.19
45621;BME280;31345;51.522;10.702;2022-07-29T03:55:10;99160.00;;;15.50;85.68
45621;BME280;31345;51.522;10.702;2022-07-29T03:57:38;99166.00;;;15.52;86.03
45621;BME280;31345;51.522;10.702;2022-07-29T04:00:08;99163.75;;;15.48;86.67
45621;BME280;31345;51.522;10.702;2022-07-29T04:02:36;99166.00;;;15.52;87.95
45621;BME280;31345;51.522;10.702;2022-07-29T04:05:11;99165.94;;;15.42;89.66
45621;BME280;31345;51.522;10.702;2022-07-29T04:07:39;99168.16;;;15.16;90.73
45621;BME280;31345;51.522;10.702;2022-07-29T04:10:07;99155.28;;;15.23;88.73
45621;BME280;31345;51.522;10.702;2022-07-29T04:12:35;99164.81;;;15.14;90.87
45621;BME280;31345;51.522;10.702;2022-07-29T04:15:02;99160.56;;;15.01;95.71
45621;BME280;31345;51.522;10.702;2022-07-29T04:17:30;99152.84;;;15.10;90.94
45621;BME280;31345;51.522;10.702;2022-07-29T04:19:58;99157.41;;;15.08;92.91
45621;BME280;31345;51.522;10.702;2022-07-29T04:22:27;99159.53;;;15.14;92.52
45621;BME280;31345;51.522;10.702;2022-07-29T04:24:54;99165.44;;;15.27;89.69
45621;BME280;31345;51.522;10.702;2022-07-29T04:27:22;99157.50;;;15.49;87.66
45621;BME280;31345;51.522;10.702;2022-07-29T04:29:49;99166.00;;;15.52;86.30
45621;BME280;31345;51.522;10.702;2022-07-29T04:32:17;99177.28;;;15.64;84.65
45621;BME280;31345;51.522;10.702;2022-07-29T04:34:44;99188.28;;;15.79;84.43
45621;BME280;31345;51.522;10.702;2022-07-29T04:37:13;99199.63;;;15.70;88.65
45621;BME280;31345;51.522;10.702;2022-07-29T04:39:42;99198.66;;;15.71;90.43
45621;BME280;31345;51.522;10.702;2022-07-29T04:42:10;99194.91;;;15.74;89.88
45621;BME280;31345;51.522;10.702;2022-07-29T04:44:37;99187.75;;;15.54;88.53
45621;BME280;31345;51.522;10.702;2022-07-29T04:47:07;99183.78;;;15.60;90.47
45621;BME280;31345;51.522;10.702;2022-07-29T04:49:37;99181.81;;;15.52;88.71
45621;BME280;31345;51.522;10.702;2022-07-29T04:52:05;99176.97;;;15.58;90.62
45621;BME280;31345;51.522;10.702;2022-07-29T04:54:33;99168.94;;;15.59;87.85
45621;BME280;31345;51.522;10.702;2022-07-29T04:57:02;99171.44;;;15.92;84.47
45621;BME280;31345;51.522;10.702;2022-07-29T04:59:29;99177.69;;;16.01;86.61
45621;BME280;31345;51.522;10.702;2022-07-29T05:01:57;99178.09;;;15.96;85.92
45621;BME280;31345;51.522;10.702;2022-07-29T05:04:24;99176.72;;;16.12;83.73
45621;BME280;31345;51.522;10.702;2022-07-29T05:06:52;99176.97;;;16.40;80.27
45621;BME280;31345;51.522;10.702;2022-07-29T05:09:20;99173.91;;;16.35;82.11
45621;BME280;31345;51.522;10.702;2022-07-29T05:12:13;99182.25;;;16.30;88.29
45621;BME280;31345;51.522;10.702;2022-07-29T05:15:07;99172.25;;;16.33;85.47
45621;BME280;31345;51.522;10.702;2022-07-29T05:17:36;99169.88;;;16.30;85.65
45621;BME280;31345;51.522;10.702;2022-07-29T05:20:04;99174.13;;;16.21;85.51
45621;BME280;31345;51.522;10.702;2022-07-29T05:22:32;99176.13;;;16.29;84.05
45621;BME280;31345;51.522;10.702;2022-07-29T05:25:00;99180.22;;;16.12;90.56
45621;BME280;31345;51.522;10.702;2022-07-29T05:27:31;99182.31;;;16.18;90.39
45621;BME280;31345;51.522;10.702;2022-07-29T05:29:58;99184.84;;;16.20;93.26
45621;BME280;31345;51.522;10.702;2022-07-29T05:32:26;99175.69;;;16.24;91.67
45621;BME280;31345;51.522;10.702;2022-07-29T05:34:53;99168.09;;;16.41;84.22
45621;BME280;31345;51.522;10.702;2022-07-29T05:37:21;99179.34;;;16.43;92.94
45621;BME280;31345;51.522;10.702;2022-07-29T05:39:49;99160.34;;;16.59;81.98
45621;BME280;31345;51.522;10.702;2022-07-29T05:42:16;99169.78;;;16.71;85.79
45621;BME280;31345;51.522;10.702;2022-07-29T05:44:45;99170.19;;;16.77;89.77
45621;BME280;31345;51.522;10.702;2022-07-29T05:47:13;99158.09;;;16.94;82.82
45621;BME280;31345;51.522;10.702;2022-07-29T05:49:41;99171.69;;;16.99;89.25
45621;BME280;31345;51.522;10.702;2022-07-29T05:52:08;99168.78;;;17.02;85.71
45621;BME280;31345;51.522;10.702;2022-07-29T05:54:36;99172.38;;;17.21;87.26
45621;BME280;31345;51.522;10.702;2022-07-29T05:57:03;99164.59;;;17.19;82.55
45621;BME280;31345;51.522;10.702;2022-07-29T05:59:35;99161.34;;;17.26;77.23
45621;BME280;31345;51.522;10.702;2022-07-29T06:02:04;99158.13;;;17.42;75.55
45621;BME280;31345;51.522;10.702;2022-07-29T06:04:32;99166.34;;;17.48;76.13
45621;BME280;31345;51.522;10.702;2022-07-29T06:07:00;99156.59;;;17.59;76.00
45621;BME280;31345;51.522;10.702;2022-07-29T06:09:27;99167.94;;;17.69;78.38
45621;BME280;31345;51.522;10.702;2022-07-29T06:11:55;99159.16;;;17.79;75.58
45621;BME280;31345;51.522;10.702;2022-07-29T06:14:24;99159.44;;;18.04;76.73
45621;BME280;31345;51.522;10.702;2022-07-29T06:16:52;99158.81;;;18.10;73.32
45621;BME280;31345;51.522;10.702;2022-07-29T06:19:21;99152.16;;;18.06;73.30
45621;BME280;31345;51.522;10.702;2022-07-29T06:21:48;99146.84;;;18.34;72.55
45621;BME280;31345;51.522;10.702;2022-07-29T06:24:16;99154.69;;;18.25;73.06
45621;BME280;31345;51.522;10.702;2022-07-29T06:26:44;99148.19;;;18.20;74.42
45621;BME280;31345;51.522;10.702;2022-07-29T06:29:11;99146.31;;;18.30;72.82
45621;BME280;31345;51.522;10.702;2022-07-29T06:31:39;99147.00;;;18.32;73.48
45621;BME280;31345;51.522;10.702;2022-07-29T06:34:06;99146.47;;;18.29;77.30
45621;BME280;31345;51.522;10.702;2022-07-29T06:36:36;99140.53;;;18.63;73.43
45621;BME280;31345;51.522;10.702;2022-07-29T06:39:05;99142.97;;;18.56;71.48
45621;BME280;31345;51.522;10.702;2022-07-29T06:41:33;99148.81;;;18.50;75.14
45621;BME280;31345;51.522;10.702;2022-07-29T06:44:09;99152.47;;;18.49;75.37
45621;BME280;31345;51.522;10.702;2022-07-29T06:46:37;99152.94;;;18.62;74.60
45621;BME280;31345;51.522;10.702;2022-07-29T06:49:05;99161.19;;;19.04;75.13
45621;BME280;31345;51.522;10.702;2022-07-29T06:51:32;99147.84;;;19.14;68.68
45621;BME280;31345;51.522;10.702;2022-07-29T06:54:02;99157.06;;;19.54;68.95
45621;BME280;31345;51.522;10.702;2022-07-29T06:56:32;99158.56;;;19.57;64.25
45621;BME280;31345;51.522;10.702;2022-07-29T06:58:59;99159.66;;;19.46;64.88
45621;BME280;31345;51.522;10.702;2022-07-29T07:01:27;99161.94;;;19.41;63.17
45621;BME280;31345;51.522;10.702;2022-07-29T07:03:54;99156.34;;;19.44;59.39
45621;BME280;31345;51.522;10.702;2022-07-29T07:06:22;99158.78;;;19.37;60.16
45621;BME280;31345;51.522;10.702;2022-07-29T07:08:52;99158.53;;;19.49;60.15
45621;BME280;31345;51.522;10.702;2022-07-29T07:11:21;99153.09;;;19.32;62.66
45621;BME280;31345;51.522;10.702;2022-07-29T07:13:49;99158.31;;;19.42;60.53
45621;BME280;31345;51.522;10.702;2022-07-29T07:16:16;99155.88;;;19.75;62.53
45621;BME280;31345;51.522;10.702;2022-07-29T07:18:44;99164.94;;;20.08;63.75
45621;BME280;31345;51.522;10.702;2022-07-29T07:21:12;99160.88;;;20.55;63.29
45621;BME280;31345;51.522;10.702;2022-07-29T07:23:40;99155.88;;;20.43;60.00
45621;BME280;31345;51.522;10.702;2022-07-29T07:26:07;99157.78;;;20.84;63.34
45621;BME280;31345;51.522;10.702;2022-07-29T07:28:36;99168.06;;;20.71;60.04
45621;BME280;31345;51.522;10.702;2022-07-29T07:31:04;99149.63;;;21.03;59.49
45621;BME280;31345;51.522;10.702;2022-07-29T07:33:32;99153.75;;;21.22;56.75
45621;BME280;31345;51.522;10.702;2022-07-29T07:36:00;99159.53;;;21.51;55.70
45621;BME280;31345;51.522;10.702;2022-07-29T07:38:27;99150.72;;;21.50;55.72
45621;BME280;31345;51.522;10.702;2022-07-29T07:40:55;99152.19;;;21.44;55.14
45621;BME280;31345;51.522;10.702;2022-07-29T07:43:23;99155.22;;;21.41;57.00
45621;BME280;31345;51.522;10.702;2022-07-29T07:45:51;99148.22;;;21.48;56.57
45621;BME280;31345;51.522;10.702;2022-07-29T07:48:19;99143.06;;;21.55;55.87
45621;BME280;31345;51.522;10.702;2022-07-29T07:50:46;99141.06;;;21.41;55.48
45621;BME280;31345;51.522;10.702;2022-07-29T07:53:15;99149.56;;;21.36;57.58
45621;BME280;31345;51.522;10.702;2022-07-29T07:55:43;99151.75;;;21.24;57.04
45621;BME280;31345;51.522;10.702;2022-07-29T07:58:11;99154.41;;;21.24;57.19
45621;BME280;31345;51.522;10.702;2022-07-29T08:00:39;99153.28;;;21.02;57.09
45621;BME280;31345;51.522;10.702;2022-07-29T08:03:07;99157.59;;;20.94;57.82
45621;BME280;31345;51.522;10.702;2022-07-29T08:05:38;99163.06;;;21.01;58.22
45621;BME280;31345;51.522;10.702;2022-07-29T08:08:06;99157.91;;;21.08;57.20
45621;BME280;31345;51.522;10.702;2022-07-29T08:10:34;99158.78;;;20.92;57.59
45621;BME280;31345;51.522;10.702;2022-07-29T08:13:20;99157.78;;;20.93;57.88
45621;BME280;31345;51.522;10.702;2022-07-29T08:15:48;99159.94;;;20.89;58.11
45621;BME280;31345;51.522;10.702;2022-07-29T08:18:25;99161.59;;;20.74;58.12
45621;BME280;31345;51.522;10.702;2022-07-29T08:20:53;99164.56;;;20.62;56.87
45621;BME280;31345;51.522;10.702;2022-07-29T08:23:21;99171.06;;;20.76;57.57
45621;BME280;31345;51.522;10.702;2022-07-29T08:25:49;99169.88;;;20.95;57.16
45621;BME280;31345;51.522;10.702;2022-07-29T08:28:16;99160.94;;;20.96;59.12
45621;BME280;31345;51.522;10.702;2022-07-29T08:30:44;99160.56;;;21.33;57.04
45621;BME280;31345;51.522;10.702;2022-07-29T08:33:12;99155.25;;;21.33;54.44
45621;BME280;31345;51.522;10.702;2022-07-29T08:35:40;99153.56;;;21.23;54.97
45621;BME280;31345;51.522;10.702;2022-07-29T08:38:08;99154.53;;;21.39;58.06
45621;BME280;31345;51.522;10.702;2022-07-29T08:40:36;99166.84;;;21.32;56.87
45621;BME280;31345;51.522;10.702;2022-07-29T08:43:07;99161.19;;;21.52;56.40
45621;BME280;31345;51.522;10.702;2022-07-29T08:45:41;99156.69;;;21.60;57.03
45621;BME280;31345;51.522;10.702;2022-07-29T08:48:11;99154.50;;;21.64;53.83
45621;BME280;31345;51.522;10.702;2022-07-29T08:50:41;99161.97;;;22.09;54.58
45621;BME280;31345;51.522;10.702;2022-07-29T08:53:14;99159.72;;;22.53;54.36
45621;BME280;31345;51.522;10.702;2022-07-29T08:55:43;99153.91;;;22.72;51.15
45621;BME280;31345;51.522;10.702;2022-07-29T08:58:11;99147.41;;;23.13;52.00
45621;BME280;31345;51.522;10.702;2022-07-29T09:00:42;99150.41;;;22.95;52.50
45621;BME280;31345;51.522;10.702;2022-07-29T09:03:12;99143.25;;;22.96;51.59
45621;BME280;31345;51.522;10.702;2022-07-29T09:05:47;99143.31;;;22.87;50.91
45621;BME280;31345;51.522;10.702;2022-07-29T09:08:17;99144.00;;;23.20;52.27
45621;BME280;31345;51.522;10.702;2022-07-29T09:10:44;99144.50;;;23.23;50.28
45621;BME280;31345;51.522;10.702;2022-07-29T09:13:12;99138.00;;;23.41;52.93
45621;BME280;31345;51.522;10.702;2022-07-29T09:15:39;99132.72;;;23.33;47.82
45621;BME280;31345;51.522;10.702;2022-07-29T09:18:07;99125.53;;;23.18;49.70
45621;BME280;31345;51.522;10.702;2022-07-29T09:20:35;99127.22;;;23.49;51.75
45621;BME280;31345;51.522;10.702;2022-07-29T09:23:22;99127.31;;;23.56;54.46
45621;BME280;31345;51.522;10.702;2022-07-29T09:25:50;99127.59;;;23.46;52.76
45621;BME280;31345;51.522;10.702;2022-07-29T09:28:18;99124.19;;;23.37;51.07
45621;BME280;31345;51.522;10.702;2022-07-29T09:30:53;99124.81;;;23.24;49.70
45621;BME280;31345;51.522;10.702;2022-07-29T09:33:21;99110.75;;;23.31;54.20
45621;BME280;31345;51.522;10.702;2022-07-29T09:35:59;99109.63;;;23.40;51.64
45621;BME280;31345;51.522;10.702;2022-07-29T09:38:29;99105.31;;;23.39;52.69
45621;BME280;31345;51.522;10.702;2022-07-29T09:40:57;99105.41;;;23.46;49.26
45621;BME280;31345;51.522;10.702;2022-07-29T09:43:25;99104.22;;;23.33;48.91
45621;BME280;31345;51.522;10.702;2022-07-29T09:45:54;99104.03;;;23.50;53.11
45621;BME280;31345;51.522;10.702;2022-07-29T09:48:23;99106.88;;;23.33;54.21
45621;BME280;31345;51.522;10.702;2022-07-29T09:50:51;99095.38;;;23.33;51.98
45621;BME280;31345;51.522;10.702;2022-07-29T09:53:31;99101.53;;;23.48;54.75
45621;BME280;31345;51.522;10.702;2022-07-29T09:55:59;99098.13;;;23.24;50.71
45621;BME280;31345;51.522;10.702;2022-07-29T09:58:27;99090.84;;;23.18;51.93
45621;BME280;31345;51.522;10.702;2022-07-29T10:00:56;99097.94;;;23.11;56.86
45621;BME280;31345;51.522;10.702;2022-07-29T10:03:23;99103.72;;;23.14;58.26
45621;BME280;31345;51.522;10.702;2022-07-29T10:06:05;99093.88;;;23.15;52.36
45621;BME280;31345;51.522;10.702;2022-07-29T10:08:35;99084.50;;;23.04;51.31
45621;BME280;31345;51.522;10.702;2022-07-29T10:11:10;99078.22;;;22.82;50.36
45621;BME280;31345;51.522;10.702;2022-07-29T10:13:38;99077.13;;;22.76;50.56
45621;BME280;31345;51.522;10.702;2022-07-29T10:16:06;99074.53;;;22.83;50.86
45621;BME280;31345;51.522;10.702;2022-07-29T10:18:34;99073.09;;;23.10;49.00
45621;BME280;31345;51.522;10.702;2022-07-29T10:21:02;99068.59;;;22.96;50.32
45621;BME280;31345;51.522;10.702;2022-07-29T10:23:30;99067.94;;;22.94;50.30
45621;BME280;31345;51.522;10.702;2022-07-29T10:26:00;99064.28;;;22.95;50.39
45621;BME280;31345;51.522;10.702;2022-07-29T10:28:28;99068.59;;;22.96;50.10
45621;BME280;31345;51.522;10.702;2022-07-29T10:31:02;99076.50;;;22.89;50.71
45621;BME280;31345;51.522;10.702;2022-07-29T10:33:46;99072.72;;;22.98;50.27
45621;BME280;31345;51.522;10.702;2022-07-29T10:36:41;99072.09;;;23.11;49.97
45621;BME280;31345;51.522;10.702;2022-07-29T10:39:20;99074.13;;;23.24;49.85
45621;BME280;31345;51.522;10.702;2022-07-29T10:42:13;99064.75;;;23.44;48.15
45621;BME280;31345;51.522;10.702;2022-07-29T10:44:44;99066.38;;;23.75;47.22
45621;BME280;31345;51.522;10.702;2022-07-29T10:47:19;99066.63;;;24.17;49.34
45621;BME280;31345;51.522;10.702;2022-07-29T10:49:58;99056.34;;;24.64;46.94
45621;BME280;31345;51.522;10.702;2022-07-29T10:52:52;99062.00;;;25.12;47.68
45621;BME280;31345;51.522;10.702;2022-07-29T10:55:41;99050.16;;;25.63;46.66
45621;BME280;31345;51.522;10.702;2022-07-29T10:58:16;99054.34;;;25.02;42.57
45621;BME280;31345;51.522;10.702;2022-07-29T11:00:45;99054.72;;;24.99;43.76
45621;BME280;31345;51.522;10.702;2022-07-29T11:06:18;99051.06;;;25.42;43.50
45621;BME280;31345;51.522;10.702;2022-07-29T11:09:15;99038.78;;;25.61;41.45
45621;BME280;31345;51.522;10.702;2022-07-29T11:11:43;99046.91;;;25.95;45.00
45621;BME280;31345;51.522;10.702;2022-07-29T11:14:13;99039.97;;;26.41;43.21
45621;BME280;31345;51.522;10.702;2022-07-29T11:17:01;99037.47;;;26.80;41.66
45621;BME280;31345;51.522;10.702;2022-07-29T11:19:29;99038.75;;;26.37;40.54
45621;BME280;31345;51.522;10.702;2022-07-29T11:21:57;99042.41;;;26.22;37.25
45621;BME280;31345;51.522;10.702;2022-07-29T11:24:27;99031.69;;;26.09;37.04
45621;BME280;31345;51.522;10.702;2022-07-29T11:27:15;99030.84;;;26.08;37.95
45621;BME280;31345;51.522;10.702;2022-07-29T11:29:53;99031.03;;;25.93;39.12
45621;BME280;31345;51.522;10.702;2022-07-29T11:32:22;99047.81;;;26.43;37.48
45621;BME280;31345;51.522;10.702;2022-07-29T11:35:12;99036.66;;;26.26;39.42
45621;BME280;31345;51.522;10.702;2022-07-29T11:37:40;99037.88;;;26.09;39.29
45621;BME280;31345;51.522;10.702;2022-07-29T11:40:15;99040.13;;;25.99;40.60
45621;BME280;31345;51.522;10.702;2022-07-29T11:42:45;99034.56;;;26.07;39.15
45621;BME280;31345;51.522;10.702;2022-07-29T11:45:19;99029.03;;;26.29;39.81
45621;BME280;31345;51.522;10.702;2022-07-29T11:47:49;99038.50;;;26.18;40.09
45621;BME280;31345;51.522;10.702;2022-07-29T11:50:27;99038.13;;;26.42;39.80
45621;BME280;31345;51.522;10.702;2022-07-29T11:52:55;99030.91;;;26.56;38.78
45621;BME280;31345;51.522;10.702;2022-07-29T11:55:24;99032.78;;;26.42;38.51
45621;BME280;31345;51.522;10.702;2022-07-29T11:57:55;99023.28;;;26.46;38.52
45621;BME280;31345;51.522;10.702;2022-07-29T12:00:27;99026.34;;;26.77;39.51
45621;BME280;31345;51.522;10.702;2022-07-29T12:02:55;99019.53;;;26.81;38.21
45621;BME280;31345;51.522;10.702;2022-07-29T12:05:34;99020.13;;;26.90;40.40
45621;BME280;31345;51.522;10.702;2022-07-29T12:08:10;99018.25;;;27.10;36.79
45621;BME280;31345;51.522;10.702;2022-07-29T12:10:39;99013.00;;;27.29;38.81
45621;BME280;31345;51.522;10.702;2022-07-29T12:13:07;99024.75;;;27.35;38.52
45621;BME280;31345;51.522;10.702;2022-07-29T12:15:37;99023.19;;;27.13;38.57
45621;BME280;31345;51.522;10.702;2022-07-29T12:18:15;99015.56;;;26.90;38.37
45621;BME280;31345;51.522;10.702;2022-07-29T12:20:44;99019.31;;;26.82;38.71
45621;BME280;31345;51.522;10.702;2022-07-29T12:23:12;99020.38;;;26.81;38.63
45621;BME280;31345;51.522;10.702;2022-07-29T12:25:41;99018.94;;;26.58;39.91
45621;BME280;31345;51.522;10.702;2022-07-29T12:28:11;99011.13;;;26.50;36.99
45621;BME280;31345;51.522;10.702;2022-07-29T12:30:42;99018.72;;;26.26;39.00
45621;BME280;31345;51.522;10.702;2022-07-29T12:33:21;99022.41;;;26.18;38.07
45621;BME280;31345;51.522;10.702;2022-07-29T12:35:51;99014.81;;;26.22;37.89
45621;BME280;31345;51.522;10.702;2022-07-29T12:38:20;99005.78;;;26.43;38.45
45621;BME280;31345;51.522;10.702;2022-07-29T12:40:49;99015.25;;;26.53;43.48
45621;BME280;31345;51.522;10.702;2022-07-29T12:43:18;99020.38;;;26.68;39.69
45621;BME280;31345;51.522;10.702;2022-07-29T12:45:49;99010.44;;;26.95;38.94
45621;BME280;31345;51.522;10.702;2022-07-29T12:48:17;99008.47;;;27.30;40.64
45621;BME280;31345;51.522;10.702;2022-07-29T12:50:53;99006.34;;;27.84;38.31
45621;BME280;31345;51.522;10.702;2022-07-29T12:53:21;99000.94;;;28.16;36.69
45621;BME280;31345;51.522;10.702;2022-07-29T12:55:51;98999.25;;;28.22;37.94
45621;BME280;31345;51.522;10.702;2022-07-29T12:58:27;98993.06;;;28.22;34.92
45621;BME280;31345;51.522;10.702;2022-07-29T13:01:07;98992.34;;;27.69;36.98
45621;BME280;31345;51.522;10.702;2022-07-29T13:03:52;98990.56;;;27.03;38.61
45621;BME280;31345;51.522;10.702;2022-07-29T13:06:35;98986.84;;;27.04;39.79
45621;BME280;31345;51.522;10.702;2022-07-29T13:09:05;98989.53;;;27.04;39.83
45621;BME280;31345;51.522;10.702;2022-07-29T13:11:34;98989.25;;;26.60;39.67